Terminal Aerodrome Forecast
Issued by NWS Springfield, MO

Home | Current Version | Previous Version | Text Only | Print | Product List | Glossary On
Versions: 1 2 3 4 5 6 7 8 9 10 11 12 13 14 15 16 17 18 19 20 21 22 23 24 25 26 27 28 29 30 31 32 33
000
FTUS43 KSGF 261259 AAA
TAFSGF
TAF AMD
KSGF 261259Z 2613/2712 26003KT P6SM OVC007
     FM261600 22006KT P6SM BKN035
     FM262200 18006KT P6SM SCT250
     FM270100 13006KT P6SM -SHRA VCTS BKN090CB
     FM270600 14012KT P6SM SHRA VCTS OVC025CB
     FM271100 15008KT 5SM SHRA OVC003=

USA.gov is the U.S. government's official web portal to all federal, state and local government web resources and services.